createdAt,value
2023-05-24T00:00:00.374Z,50.834801
2023-05-24T00:01:00.374Z,50.834805
2023-05-24T00:02:00.331Z,50.834801
2023-05-24T00:03:00.442Z,50.834831
2023-05-24T00:04:00.485Z,50.834785
2023-05-24T00:05:00.585Z,50.834801
2023-05-24T00:06:01.080Z,50.834789
2023-05-24T00:07:01.311Z,50.834797
2023-05-24T00:08:00.317Z,50.834766
2023-05-24T00:09:00.326Z,50.834793
2023-05-24T00:10:00.263Z,50.834770
2023-05-24T00:11:00.292Z,50.834770
2023-05-24T00:12:00.288Z,50.834793
2023-05-24T00:13:00.287Z,50.834816
2023-05-24T00:14:00.266Z,50.834793
2023-05-24T00:15:00.309Z,50.834793
2023-05-24T00:16:00.290Z,50.834801
2023-05-24T00:17:00.314Z,50.834774
2023-05-24T00:18:00.460Z,50.834782
2023-05-24T00:19:00.220Z,50.834789
2023-05-24T00:20:00.286Z,50.834774
2023-05-24T00:21:00.222Z,50.834785
2023-05-24T00:22:00.190Z,50.834778
2023-05-24T00:23:00.172Z,50.834759
2023-05-24T00:24:00.165Z,50.834782
2023-05-24T00:25:00.221Z,50.834770
2023-05-24T00:26:00.181Z,50.834789
2023-05-24T00:27:00.142Z,50.834774
2023-05-24T00:28:00.196Z,50.834785
2023-05-24T00:29:00.145Z,50.834801
2023-05-24T00:30:00.629Z,50.834808
2023-05-24T00:31:00.221Z,50.834797
2023-05-24T00:32:00.250Z,50.834782
2023-05-24T00:33:00.123Z,50.834770
2023-05-24T00:34:00.111Z,50.834789
2023-05-24T00:35:00.154Z,50.834785
2023-05-24T00:36:00.157Z,50.834808
2023-05-24T00:37:00.054Z,50.834789
2023-05-24T00:38:00.101Z,50.834812
2023-05-24T00:39:00.109Z,50.834816
2023-05-24T00:40:00.054Z,50.834816
2023-05-24T00:41:00.094Z,50.834805
2023-05-24T00:42:00.047Z,50.834808
2023-05-24T00:43:00.055Z,50.834808
2023-05-24T00:44:00.049Z,50.834797
2023-05-24T00:45:00.006Z,50.834789
2023-05-24T00:46:00.035Z,50.834789
2023-05-24T00:47:00.002Z,50.834785
2023-05-24T00:48:00.834Z,50.834797
2023-05-24T00:48:59.996Z,50.834808
2023-05-24T00:50:00.015Z,50.834839
2023-05-24T00:50:59.949Z,50.834831
2023-05-24T00:51:59.967Z,50.834835
2023-05-24T00:52:59.985Z,50.834824
2023-05-24T00:53:59.935Z,50.834831
2023-05-24T00:54:59.960Z,50.834816
2023-05-24T00:55:59.923Z,50.834839
2023-05-24T00:57:00.234Z,50.834843
2023-05-24T00:57:59.898Z,50.834820
2023-05-24T00:59:00.904Z,50.834866
2023-05-24T00:59:59.899Z,50.834846
2023-05-24T01:01:00.895Z,50.834831
2023-05-24T01:02:00.732Z,50.834854
2023-05-24T01:02:59.946Z,50.834839
2023-05-24T01:04:00.382Z,50.834839
2023-05-24T01:04:59.908Z,50.834843
2023-05-24T01:05:59.840Z,50.834812
2023-05-24T01:06:59.828Z,50.834827
2023-05-24T01:07:59.869Z,50.834820
2023-05-24T01:08:59.837Z,50.834827
2023-05-24T01:09:59.885Z,50.834835
2023-05-24T01:11:00.137Z,50.834839
2023-05-24T01:11:59.825Z,50.834839
2023-05-24T01:12:59.841Z,50.834824
2023-05-24T01:14:00.775Z,50.834869
2023-05-24T01:14:59.776Z,50.834850
2023-05-24T01:15:59.949Z,50.834854
2023-05-24T01:16:59.819Z,50.834846
2023-05-24T01:17:59.795Z,50.834858
2023-05-24T01:18:59.795Z,50.834816
2023-05-24T01:19:59.771Z,50.834843
2023-05-24T01:20:59.744Z,50.834831
2023-05-24T01:21:59.913Z,50.834866
2023-05-24T01:22:59.811Z,50.834869
2023-05-24T01:23:59.728Z,50.834854
2023-05-24T01:24:59.696Z,50.834873
2023-05-24T01:25:59.706Z,50.834824
2023-05-24T01:26:59.700Z,50.834869
2023-05-24T01:27:59.671Z,50.834850
2023-05-24T01:28:59.661Z,50.834850
2023-05-24T01:29:59.679Z,50.834858
2023-05-24T01:30:59.781Z,50.834858
2023-05-24T01:31:59.709Z,50.834881
2023-05-24T01:32:59.665Z,50.834877
2023-05-24T01:33:59.651Z,50.834858
2023-05-24T01:35:01.193Z,50.834866
2023-05-24T01:35:59.602Z,50.834877
2023-05-24T01:36:59.885Z,50.834873
2023-05-24T01:37:59.608Z,50.834827
2023-05-24T01:38:59.572Z,50.834862
2023-05-24T01:39:59.591Z,50.834862
2023-05-24T01:40:59.608Z,50.834835
2023-05-24T01:42:00.586Z,50.834839
2023-05-24T01:42:59.880Z,50.834831
2023-05-24T01:43:59.540Z,50.834839
2023-05-24T01:44:59.550Z,50.834862
2023-05-24T01:45:59.527Z,50.834873
2023-05-24T01:46:59.549Z,50.834869
2023-05-24T01:47:59.607Z,50.834850
2023-05-24T01:48:59.499Z,50.834850
2023-05-24T01:50:01.244Z,50.834854
2023-05-24T01:50:59.545Z,50.834839
2023-05-24T01:51:59.637Z,50.834839
2023-05-24T01:52:59.514Z,50.834854
2023-05-24T01:53:59.498Z,50.834850
2023-05-24T01:54:59.476Z,50.834843
2023-05-24T01:55:59.948Z,50.834835
2023-05-24T01:56:59.442Z,50.834850
2023-05-24T01:57:59.449Z,50.834843
2023-05-24T01:58:59.452Z,50.834831
2023-05-24T01:59:59.427Z,50.834843
2023-05-24T02:00:59.490Z,50.834846
2023-05-24T02:01:59.451Z,50.834862
2023-05-24T02:02:59.554Z,50.834858
2023-05-24T02:03:59.419Z,50.834869
2023-05-24T02:04:59.404Z,50.834854
2023-05-24T02:06:00.237Z,50.834835
2023-05-24T02:06:59.399Z,50.834850
2023-05-24T02:07:59.392Z,50.834858
2023-05-24T02:08:59.394Z,50.834846
2023-05-24T02:09:59.359Z,50.834854
2023-05-24T02:10:59.331Z,50.834850
2023-05-24T02:11:59.371Z,50.834831
2023-05-24T02:12:59.330Z,50.834805
2023-05-24T02:13:59.374Z,50.834835
2023-05-24T02:14:59.315Z,50.834827
2023-05-24T02:15:59.294Z,50.834843
2023-05-24T02:16:59.498Z,50.834831
2023-05-24T02:17:59.320Z,50.834824
2023-05-24T02:18:59.354Z,50.834839
2023-05-24T02:20:00.509Z,50.834831
2023-05-24T02:20:59.287Z,50.834866
2023-05-24T02:21:59.247Z,50.834816
2023-05-24T02:22:59.232Z,50.834820
2023-05-24T02:23:59.285Z,50.834862
2023-05-24T02:24:59.235Z,50.834839
2023-05-24T02:25:59.244Z,50.834835
2023-05-24T02:26:59.237Z,50.834858
2023-05-24T02:27:59.240Z,50.834846
2023-05-24T02:28:59.227Z,50.834835
2023-05-24T02:30:31.688Z,50.834839
2023-05-24T02:30:59.209Z,50.834850
2023-05-24T02:31:59.161Z,50.834858
2023-05-24T02:32:59.267Z,50.834858
2023-05-24T02:34:33.196Z,50.834846
2023-05-24T02:34:59.150Z,50.834858
2023-05-24T02:35:59.144Z,50.834877
2023-05-24T02:36:59.158Z,50.834843
2023-05-24T02:37:59.161Z,50.834839
2023-05-24T02:38:59.124Z,50.834862
2023-05-24T02:39:59.148Z,50.834866
2023-05-24T02:40:59.103Z,50.834854
2023-05-24T02:41:59.119Z,50.834858
2023-05-24T02:42:59.198Z,50.834843
2023-05-24T02:44:00.116Z,50.834839
2023-05-24T02:44:59.071Z,50.834831
2023-05-24T02:45:59.067Z,50.834835
2023-05-24T02:46:59.095Z,50.834827
2023-05-24T02:47:59.069Z,50.834858
2023-05-24T02:48:59.071Z,50.834866
2023-05-24T02:49:59.016Z,50.834858
2023-05-24T02:51:00.032Z,50.834850
2023-05-24T02:51:59.071Z,50.834843
2023-05-24T02:52:59.039Z,50.834854
2023-05-24T02:53:59.003Z,50.834862
2023-05-24T02:54:58.976Z,50.834843
2023-05-24T02:55:58.960Z,50.834858
2023-05-24T02:56:58.981Z,50.834820
2023-05-24T02:57:59.006Z,50.834839
2023-05-24T02:58:59.017Z,50.834854
2023-05-24T02:59:58.953Z,50.834866
2023-05-24T03:00:58.964Z,50.834846
2023-05-24T03:01:59.019Z,50.834831
2023-05-24T03:02:59.020Z,50.834827
2023-05-24T03:03:58.962Z,50.834816
2023-05-24T03:04:58.933Z,50.834827
2023-05-24T03:05:58.911Z,50.834816
2023-05-24T03:06:59.160Z,50.834843
2023-05-24T03:08:00.685Z,50.834827
2023-05-24T03:08:58.888Z,50.834835
2023-05-24T03:09:58.880Z,50.834820
2023-05-24T03:10:59.766Z,50.834824
2023-05-24T03:11:58.874Z,50.834835
2023-05-24T03:12:59.773Z,50.834846
2023-05-24T03:13:58.896Z,50.834843
2023-05-24T03:14:58.860Z,50.834846
2023-05-24T03:15:59.769Z,50.834850
2023-05-24T03:16:59.352Z,50.834869
2023-05-24T03:17:58.869Z,50.834873
2023-05-24T03:18:58.804Z,50.834846
2023-05-24T03:19:58.802Z,50.834846
2023-05-24T03:20:58.816Z,50.834858
2023-05-24T03:21:58.789Z,50.834843
2023-05-24T03:22:58.790Z,50.834846
2023-05-24T03:23:58.757Z,50.834824
2023-05-24T03:24:58.792Z,50.834846
2023-05-24T03:25:58.738Z,50.834846
2023-05-24T03:26:58.781Z,50.834846
2023-05-24T03:27:58.788Z,50.834835
2023-05-24T03:28:58.807Z,50.834839
2023-05-24T03:29:58.776Z,50.834854
2023-05-24T03:30:58.754Z,50.834820
2023-05-24T03:31:58.799Z,50.834805
2023-05-24T03:32:58.762Z,50.834824
2023-05-24T03:33:58.675Z,50.834831
2023-05-24T03:34:58.708Z,50.834858
2023-05-24T03:35:58.691Z,50.834843
2023-05-24T03:36:58.665Z,50.834843
2023-05-24T03:37:59.296Z,50.834835
2023-05-24T03:38:58.702Z,50.834843
2023-05-24T03:39:58.668Z,50.834839
2023-05-24T03:40:58.617Z,50.834854
2023-05-24T03:41:58.635Z,50.834839
2023-05-24T03:42:58.667Z,50.834835
2023-05-24T03:43:58.654Z,50.834835
2023-05-24T03:44:58.620Z,50.834835
2023-05-24T03:45:58.610Z,50.834854
2023-05-24T03:46:58.583Z,50.834854
2023-05-24T04:08:06.144Z,50.834785
2023-05-24T04:09:06.102Z,50.834850
2023-05-24T04:10:06.105Z,50.834831
2023-05-24T04:11:06.097Z,50.834885
2023-05-24T04:12:06.121Z,50.834846
2023-05-24T04:13:06.112Z,50.834850
2023-05-24T04:14:06.077Z,50.834827
2023-05-24T04:15:06.077Z,50.834805
2023-05-24T04:16:06.053Z,50.834812
2023-05-24T04:17:06.143Z,50.834805
2023-05-24T04:18:06.151Z,50.834801
2023-05-24T04:19:06.031Z,50.834805
2023-05-24T04:20:06.061Z,50.834808
2023-05-24T04:21:06.035Z,50.834793
2023-05-24T04:22:06.021Z,50.834797
2023-05-24T04:23:06.005Z,50.834808
2023-05-24T04:24:05.995Z,50.834824
2023-05-24T04:25:06.019Z,50.834805
2023-05-24T04:26:06.011Z,50.834789
2023-05-24T04:27:05.983Z,50.834805
2023-05-24T04:28:05.974Z,50.834801
2023-05-24T04:29:05.953Z,50.834797
2023-05-24T04:30:05.974Z,50.834808
2023-05-24T04:31:06.021Z,50.834789
2023-05-24T04:32:05.921Z,50.834820
2023-05-24T04:33:06.037Z,50.834778
2023-05-24T04:34:05.924Z,50.834797
2023-05-24T04:35:05.980Z,50.834785
2023-05-24T04:36:05.952Z,50.834778
2023-05-24T04:37:05.908Z,50.834774
2023-05-24T04:38:05.944Z,50.834782
2023-05-24T04:39:05.931Z,50.834785
2023-05-24T04:40:05.873Z,50.834766
2023-05-24T04:41:05.918Z,50.834763
2023-05-24T04:42:05.874Z,50.834759
2023-05-24T04:43:05.839Z,50.834770
2023-05-24T04:44:05.868Z,50.834774
2023-05-24T04:45:05.823Z,50.834740
2023-05-24T04:46:06.870Z,50.834778
2023-05-24T04:47:05.883Z,50.834778
2023-05-24T04:48:05.836Z,50.834755
2023-05-24T04:49:05.995Z,50.834736
2023-05-24T04:50:05.814Z,50.834763
2023-05-24T04:51:05.785Z,50.834774
2023-05-24T04:52:05.806Z,50.834755
2023-05-24T04:53:05.795Z,50.834782
2023-05-24T04:54:05.764Z,50.834782
2023-05-24T04:55:05.769Z,50.834789
2023-05-24T04:56:05.778Z,50.834808
2023-05-24T04:57:05.752Z,50.834789
2023-05-24T04:58:05.780Z,50.834774
2023-05-24T04:59:05.803Z,50.834789
2023-05-24T05:00:05.750Z,50.834774
2023-05-24T05:01:05.804Z,50.834782
2023-05-24T05:02:05.889Z,50.834797
2023-05-24T05:03:05.851Z,50.834801
2023-05-24T05:04:06.787Z,50.834789
2023-05-24T05:05:05.715Z,50.834774
2023-05-24T05:06:05.673Z,50.834778
2023-05-24T05:07:05.682Z,50.834793
2023-05-24T05:08:05.684Z,50.834793
2023-05-24T05:09:05.651Z,50.834789
2023-05-24T05:10:05.675Z,50.834789
2023-05-24T05:11:05.658Z,50.834793
2023-05-24T05:12:05.613Z,50.834789
2023-05-24T05:13:05.638Z,50.834797
2023-05-24T05:14:05.663Z,50.834785
2023-05-24T05:15:05.619Z,50.834770
2023-05-24T05:16:05.671Z,50.834785
2023-05-24T05:17:06.200Z,50.834785
2023-05-24T05:18:05.667Z,50.834770
2023-05-24T05:19:05.621Z,50.834785
2023-05-24T05:20:05.723Z,50.834778
2023-05-24T05:21:05.579Z,50.834782
2023-05-24T05:22:38.141Z,50.834774
2023-05-24T05:23:05.544Z,50.834770
2023-05-24T05:24:05.566Z,50.834766
2023-05-24T05:25:39.206Z,50.834782
2023-05-24T05:26:05.520Z,50.834801
2023-05-24T05:27:05.540Z,50.834789
2023-05-24T05:28:05.508Z,50.834782
2023-05-24T05:29:05.510Z,50.834782
2023-05-24T05:30:05.477Z,50.834782
2023-05-24T05:31:05.482Z,50.834770
2023-05-24T05:32:05.508Z,50.834766
2023-05-24T05:33:05.515Z,50.834778
2023-05-24T05:34:05.454Z,50.834766
2023-05-24T05:35:05.480Z,50.834766
2023-05-24T05:36:05.448Z,50.834770
2023-05-24T05:37:05.435Z,50.834789
2023-05-24T05:38:05.415Z,50.834782
2023-05-24T05:39:05.427Z,50.834774
2023-05-24T05:40:05.395Z,50.834766
2023-05-24T05:41:05.440Z,50.834774
2023-05-24T05:42:05.378Z,50.834774
2023-05-24T05:43:05.379Z,50.834774
2023-05-24T05:44:05.379Z,50.834770
2023-05-24T05:45:05.378Z,50.834774
2023-05-24T05:46:05.361Z,50.834782
2023-05-24T05:47:05.343Z,50.834774
2023-05-24T05:48:05.505Z,50.834774
2023-05-24T05:49:05.314Z,50.834778
2023-05-24T05:50:05.302Z,50.834793
2023-05-24T05:51:06.334Z,50.834782
2023-05-24T05:52:05.306Z,50.834782
2023-05-24T05:53:05.362Z,50.834782
2023-05-24T05:54:05.287Z,50.834805
2023-05-24T05:55:05.289Z,50.834785
2023-05-24T05:56:05.304Z,50.834778
2023-05-24T05:57:05.269Z,50.834766
2023-05-24T05:58:05.283Z,50.834801
2023-05-24T05:59:05.282Z,50.834782
2023-05-24T06:00:05.308Z,50.834759
2023-05-24T06:01:05.237Z,50.834793
2023-05-24T06:02:05.261Z,50.834797
2023-05-24T06:03:05.273Z,50.834824
2023-05-24T06:04:05.328Z,50.834793
2023-05-24T06:05:05.233Z,50.834801
2023-05-24T06:06:05.188Z,50.834812
2023-05-24T06:07:05.181Z,50.834808
2023-05-24T06:08:05.181Z,50.834820
2023-05-24T06:09:05.174Z,50.834820
2023-05-24T06:10:05.183Z,50.834801
2023-05-24T06:11:05.187Z,50.834785
2023-05-24T06:12:05.153Z,50.834778
2023-05-24T06:13:05.159Z,50.834770
2023-05-24T06:14:05.128Z,50.834778
2023-05-24T06:15:05.164Z,50.834782
2023-05-24T06:16:05.209Z,50.834770
2023-05-24T06:17:05.093Z,50.834797
2023-05-24T06:18:05.135Z,50.834808
2023-05-24T06:19:06.637Z,50.834793
2023-05-24T06:20:06.160Z,50.834782
2023-05-24T06:21:05.057Z,50.834785
2023-05-24T06:22:05.070Z,50.834770
2023-05-24T06:23:05.032Z,50.834793
2023-05-24T06:24:05.064Z,50.834820
2023-05-24T06:25:05.050Z,50.834808
2023-05-24T06:26:05.075Z,50.834785
2023-05-24T06:27:05.663Z,50.834778
2023-05-24T06:28:06.103Z,50.834778
2023-05-24T06:29:05.020Z,50.834770
2023-05-24T06:30:05.074Z,50.834782
2023-05-24T06:31:05.041Z,50.834782
2023-05-24T06:32:05.010Z,50.834785
2023-05-24T06:33:05.056Z,50.834782
2023-05-24T06:34:05.041Z,50.834778
2023-05-24T06:35:05.981Z,50.834789
2023-05-24T06:36:05.045Z,50.834793
2023-05-24T06:37:04.977Z,50.834774
2023-05-24T06:38:04.923Z,50.834816
2023-05-24T06:39:04.955Z,50.834797
2023-05-24T06:40:04.963Z,50.834805
2023-05-24T06:41:04.915Z,50.834816
2023-05-24T06:42:04.910Z,50.834805
2023-05-24T06:43:04.910Z,50.834797
2023-05-24T06:44:04.920Z,50.834820
2023-05-24T06:45:04.881Z,50.834785
2023-05-24T06:46:04.899Z,50.834793
2023-05-24T06:47:04.906Z,50.834793
2023-05-24T06:48:04.968Z,50.834808
2023-05-24T06:49:04.892Z,50.834793
2023-05-24T06:50:04.885Z,50.834805
2023-05-24T06:51:04.824Z,50.834793
2023-05-24T06:52:04.805Z,50.834793
2023-05-24T06:53:04.846Z,50.834789
2023-05-24T06:54:04.871Z,50.834785
2023-05-24T06:55:04.845Z,50.834785
2023-05-24T06:56:04.798Z,50.834766
2023-05-24T06:57:04.781Z,50.834797
2023-05-24T06:58:04.766Z,50.834797
2023-05-24T06:59:04.793Z,50.834785
2023-05-24T07:00:05.765Z,50.834785
2023-05-24T07:01:05.095Z,50.834774
2023-05-24T07:02:04.969Z,50.834782
2023-05-24T07:03:04.801Z,50.834808
2023-05-24T07:04:04.801Z,50.834805
2023-05-24T07:05:04.905Z,50.834782
2023-05-24T07:06:04.721Z,50.834797
2023-05-24T07:07:04.723Z,50.834801
2023-05-24T07:08:19.336Z,50.834801
2023-05-24T07:09:04.680Z,50.834812
2023-05-24T07:10:04.708Z,50.834805
2023-05-24T07:11:04.699Z,50.834805
2023-05-24T07:12:06.418Z,50.834812
2023-05-24T07:13:05.608Z,50.834805
2023-05-24T07:14:04.666Z,50.834774
2023-05-24T07:15:04.636Z,50.834778
2023-05-24T07:16:04.663Z,50.834782
2023-05-24T07:17:04.694Z,50.834785
2023-05-24T07:18:04.651Z,50.834782
2023-05-24T07:19:05.170Z,50.834797
2023-05-24T07:20:05.720Z,50.834782
2023-05-24T07:21:04.667Z,50.834770
2023-05-24T07:22:04.634Z,50.834789
2023-05-24T07:23:04.576Z,50.834763
2023-05-24T07:24:04.572Z,50.834774
2023-05-24T07:25:04.587Z,50.834808
2023-05-24T07:26:04.599Z,50.834820
2023-05-24T07:27:04.583Z,50.834827
2023-05-24T07:28:04.527Z,50.834793
2023-05-24T07:29:04.543Z,50.834824
2023-05-24T07:30:04.538Z,50.834850
2023-05-24T07:31:04.529Z,50.834839
2023-05-24T07:32:04.570Z,50.834858
2023-05-24T07:33:04.562Z,50.834846
2023-05-24T07:34:04.522Z,50.834858
2023-05-24T07:35:04.518Z,50.834846
2023-05-24T07:36:04.517Z,50.834839
2023-05-24T07:37:04.477Z,50.834831
2023-05-24T07:38:04.476Z,50.834839
2023-05-24T07:39:04.492Z,50.834785
2023-05-24T07:40:05.309Z,50.834846
2023-05-24T07:41:04.466Z,50.834885
2023-05-24T07:42:04.471Z,50.834831
2023-05-24T07:43:04.562Z,50.834850
2023-05-24T07:44:04.470Z,50.834862
2023-05-24T07:45:04.428Z,50.834869
2023-05-24T07:46:04.481Z,50.834827
2023-05-24T07:47:04.457Z,50.834831
2023-05-24T07:48:04.443Z,50.834820
2023-05-24T07:49:04.407Z,50.834816
2023-05-24T07:50:04.416Z,50.834824
2023-05-24T07:51:04.389Z,50.834831
2023-05-24T07:52:04.388Z,50.834835
2023-05-24T07:53:04.413Z,50.834820
2023-05-24T07:54:04.355Z,50.834824
2023-05-24T07:55:04.405Z,50.834805
2023-05-24T07:56:04.366Z,50.834820
2023-05-24T07:57:05.167Z,50.834820
2023-05-24T07:58:04.344Z,50.834843
2023-05-24T07:59:04.334Z,50.834820
2023-05-24T08:00:04.317Z,50.834808
2023-05-24T08:01:04.300Z,50.834801
2023-05-24T08:02:04.306Z,50.834816
2023-05-24T08:03:04.370Z,50.834812
2023-05-24T08:04:04.480Z,50.834812
2023-05-24T08:05:04.282Z,50.834805
2023-05-24T08:06:04.264Z,50.834816
2023-05-24T08:07:04.283Z,50.834812
2023-05-24T08:08:04.258Z,50.834820
2023-05-24T08:09:04.837Z,50.834824
2023-05-24T08:10:04.261Z,50.834820
2023-05-24T08:11:04.246Z,50.834816
2023-05-24T08:12:04.216Z,50.834827
2023-05-24T08:13:04.213Z,50.834816
2023-05-24T08:14:04.261Z,50.834816
2023-05-24T08:15:04.238Z,50.834820
2023-05-24T08:16:04.170Z,50.834827
2023-05-24T08:17:04.195Z,50.834808
2023-05-24T08:18:05.190Z,50.834805
2023-05-24T08:19:04.149Z,50.834808
2023-05-24T08:20:04.161Z,50.834801
2023-05-24T08:21:04.149Z,50.834797
2023-05-24T08:22:04.145Z,50.834801
2023-05-24T08:23:04.123Z,50.834816
2023-05-24T08:24:06.146Z,50.834808
2023-05-24T08:25:04.134Z,50.834805
2023-05-24T08:26:04.135Z,50.834812
2023-05-24T08:27:04.116Z,50.834824
2023-05-24T08:28:04.139Z,50.834816
2023-05-24T08:29:04.122Z,50.834827
2023-05-24T08:30:04.106Z,50.834824
2023-05-24T08:31:04.151Z,50.834824
2023-05-24T08:32:04.150Z,50.834812
2023-05-24T08:33:04.113Z,50.834808
2023-05-24T08:34:04.138Z,50.834831
2023-05-24T08:35:18.590Z,50.834827
2023-05-24T08:36:06.018Z,50.834812
2023-05-24T08:37:04.028Z,50.834789
2023-05-24T08:38:04.032Z,50.834797
2023-05-24T08:39:04.037Z,50.834805
2023-05-24T08:40:04.006Z,50.834805
2023-05-24T08:41:04.062Z,50.834789
2023-05-24T08:42:09.858Z,50.834801
2023-05-24T08:43:06.015Z,50.834793
2023-05-24T08:44:03.986Z,50.834827
2023-05-24T08:45:03.988Z,50.834827
2023-05-24T08:46:04.036Z,50.834831
2023-05-24T08:47:04.005Z,50.834816
2023-05-24T08:48:04.084Z,50.834824
2023-05-24T08:49:04.017Z,50.834808
2023-05-24T08:50:03.937Z,50.834835
2023-05-24T08:51:03.925Z,50.834816
2023-05-24T08:52:03.914Z,50.834812
2023-05-24T08:53:03.936Z,50.834820
2023-05-24T08:54:03.899Z,50.834816
2023-05-24T08:55:03.926Z,50.834827
2023-05-24T08:56:03.903Z,50.834816
2023-05-24T08:57:03.875Z,50.834816
2023-05-24T08:58:03.875Z,50.834824
2023-05-24T08:59:03.907Z,50.834820
2023-05-24T09:00:05.807Z,50.834812
2023-05-24T09:01:03.913Z,50.834816
2023-05-24T09:02:03.987Z,50.834805
2023-05-24T09:03:03.849Z,50.834816
2023-05-24T09:04:03.985Z,50.834831
2023-05-24T09:05:03.875Z,50.834827
2023-05-24T09:06:03.893Z,50.834808
2023-05-24T09:07:03.802Z,50.834812
2023-05-24T09:08:03.800Z,50.834808
2023-05-24T09:09:03.803Z,50.834808
2023-05-24T09:10:03.844Z,50.834827
2023-05-24T09:11:03.776Z,50.834820
2023-05-24T09:12:03.816Z,50.834805
2023-05-24T09:13:03.807Z,50.834820
2023-05-24T09:14:03.746Z,50.834808
2023-05-24T09:15:35.692Z,50.834820
2023-05-24T09:16:03.780Z,50.834801
2023-05-24T09:17:36.481Z,50.834808
2023-05-24T09:18:03.762Z,50.834801
2023-05-24T09:19:36.305Z,50.834789
2023-05-24T09:20:03.775Z,50.834835
2023-05-24T09:21:03.739Z,50.834812
2023-05-24T09:22:03.678Z,50.834816
2023-05-24T09:23:03.705Z,50.834793
2023-05-24T09:24:03.655Z,50.834789
2023-05-24T09:25:03.716Z,50.834793
2023-05-24T09:26:03.673Z,50.834816
2023-05-24T09:27:03.674Z,50.834820
2023-05-24T09:28:03.638Z,50.834816
2023-05-24T09:29:03.635Z,50.834812
2023-05-24T09:30:03.677Z,50.834816
2023-05-24T09:31:06.216Z,50.834808
2023-05-24T09:32:04.640Z,50.834801
2023-05-24T09:33:03.638Z,50.834816
2023-05-24T09:34:03.600Z,50.834789
2023-05-24T09:35:03.625Z,50.834793
2023-05-24T09:36:03.665Z,50.834793
2023-05-24T09:37:03.616Z,50.834789
2023-05-24T09:38:03.574Z,50.834801
2023-05-24T09:39:04.301Z,50.834789
2023-05-24T09:40:03.555Z,50.834797
2023-05-24T09:41:03.582Z,50.834801
2023-05-24T09:42:03.605Z,50.834801
2023-05-24T09:43:03.516Z,50.834797
2023-05-24T09:44:03.513Z,50.834805
2023-05-24T09:45:03.511Z,50.834797
2023-05-24T09:46:03.515Z,50.834812
2023-05-24T09:47:03.527Z,50.834816
2023-05-24T09:48:03.559Z,50.834785
2023-05-24T09:49:03.526Z,50.834797
2023-05-24T09:50:03.564Z,50.834808
2023-05-24T09:51:03.481Z,50.834797
2023-05-24T09:52:03.558Z,50.834789
2023-05-24T09:53:03.480Z,50.834778
2023-05-24T09:54:03.539Z,50.834774
2023-05-24T09:55:03.406Z,50.834782
2023-05-24T09:56:03.427Z,50.834778
2023-05-24T09:57:04.803Z,50.834793
2023-05-24T09:58:03.409Z,50.834782
2023-05-24T09:59:03.452Z,50.834789
2023-05-24T10:00:03.403Z,50.834793
2023-05-24T10:01:03.486Z,50.834785
2023-05-24T10:02:03.386Z,50.834782
2023-05-24T10:03:05.017Z,50.834778
2023-05-24T10:04:05.472Z,50.834805
2023-05-24T10:05:03.397Z,50.834805
2023-05-24T10:06:03.371Z,50.834812
2023-05-24T10:07:03.407Z,50.834801
2023-05-24T10:08:03.325Z,50.834805
2023-05-24T10:09:03.374Z,50.834797
2023-05-24T10:10:05.992Z,50.834801
2023-05-24T10:11:03.405Z,50.834793
2023-05-24T10:12:03.350Z,50.834793
2023-05-24T10:13:03.320Z,50.834782
2023-05-24T10:14:03.339Z,50.834805
2023-05-24T10:15:03.299Z,50.834816
2023-05-24T10:16:03.343Z,50.834812
2023-05-24T10:17:03.327Z,50.834808
2023-05-24T10:18:03.294Z,50.834789
2023-05-24T10:19:03.283Z,50.834805
2023-05-24T10:20:03.308Z,50.834816
2023-05-24T10:21:03.367Z,50.834808
2023-05-24T10:22:03.220Z,50.834824
2023-05-24T10:23:04.224Z,50.834824
2023-05-24T10:24:03.227Z,50.834831
2023-05-24T10:25:03.207Z,50.834820
2023-05-24T10:26:03.229Z,50.834843
2023-05-24T10:27:03.198Z,50.834835
2023-05-24T10:28:03.168Z,50.834824
2023-05-24T10:29:04.196Z,50.834816
2023-05-24T10:30:04.575Z,50.834812
2023-05-24T10:31:03.303Z,50.834801
2023-05-24T10:32:03.917Z,50.834785
2023-05-24T10:33:04.221Z,50.834824
2023-05-24T10:34:07.903Z,50.834816
2023-05-24T10:35:05.173Z,50.834827
2023-05-24T10:36:03.123Z,50.834824
2023-05-24T10:37:03.902Z,50.834812
2023-05-24T10:38:03.140Z,50.834820
2023-05-24T10:39:03.099Z,50.834816
2023-05-24T10:40:03.097Z,50.834816
2023-05-24T10:41:03.084Z,50.834793
2023-05-24T10:42:03.084Z,50.834782
2023-05-24T10:43:03.056Z,50.834766
2023-05-24T10:45:04.070Z,50.834782
2023-05-24T10:46:03.061Z,50.834785
2023-05-24T10:47:03.941Z,50.834774
2023-05-24T10:48:03.192Z,50.834778
2023-05-24T10:49:17.490Z,50.834785
2023-05-24T10:50:03.001Z,50.834755
2023-05-24T10:51:03.988Z,50.834774
2023-05-24T10:52:03.020Z,50.834782
2023-05-24T10:53:03.005Z,50.834793
2023-05-24T10:54:03.051Z,50.834785
2023-05-24T10:55:04.271Z,50.834789
2023-05-24T10:56:04.005Z,50.834778
2023-05-24T10:57:02.999Z,50.834785
2023-05-24T10:58:03.002Z,50.834763
2023-05-24T10:59:02.996Z,50.834755
2023-05-24T11:00:02.974Z,50.834785
2023-05-24T11:01:02.996Z,50.834793
2023-05-24T11:02:02.990Z,50.834797
2023-05-24T11:03:03.005Z,50.834808
2023-05-24T11:04:02.914Z,50.834774
2023-05-24T11:05:02.995Z,50.834808
2023-05-24T11:06:02.940Z,50.834801
2023-05-24T11:07:02.910Z,50.834766
2023-05-24T11:08:02.872Z,50.834770
2023-05-24T11:09:02.849Z,50.834759
2023-05-24T11:10:02.950Z,50.834789
2023-05-24T11:11:15.039Z,50.834782
2023-05-24T11:12:04.834Z,50.834770
2023-05-24T11:13:02.849Z,50.834778
2023-05-24T11:14:02.904Z,50.834789
2023-05-24T11:15:02.861Z,50.834801
2023-05-24T11:16:02.849Z,50.834793
2023-05-24T11:17:02.844Z,50.834782
2023-05-24T11:18:03.528Z,50.834789
2023-05-24T11:19:02.808Z,50.834774
2023-05-24T11:20:02.874Z,50.834766
2023-05-24T11:21:02.821Z,50.834763
2023-05-24T11:22:02.795Z,50.834766
2023-05-24T11:23:02.805Z,50.834774
2023-05-24T11:24:02.796Z,50.834785
2023-05-24T11:25:02.770Z,50.834782
2023-05-24T11:26:02.797Z,50.834789
2023-05-24T11:27:02.799Z,50.834801
2023-05-24T11:28:02.792Z,50.834782
2023-05-24T11:29:05.216Z,50.834793
2023-05-24T11:30:03.743Z,50.834778
2023-05-24T11:31:02.749Z,50.834793
2023-05-24T11:32:03.528Z,50.834782
2023-05-24T11:33:02.722Z,50.834785
2023-05-24T11:34:02.723Z,50.834778
2023-05-24T11:35:02.709Z,50.834785
2023-05-24T11:36:02.695Z,50.834785
2023-05-24T11:37:02.660Z,50.834785
2023-05-24T11:38:02.717Z,50.834770
2023-05-24T11:39:02.624Z,50.834782
2023-05-24T11:40:02.684Z,50.834778
2023-05-24T11:41:02.706Z,50.834763
2023-05-24T11:42:02.635Z,50.834755
2023-05-24T11:43:02.742Z,50.834763
2023-05-24T11:44:02.645Z,50.834763
2023-05-24T11:45:02.669Z,50.834770